RCSS/TSA METAR and TAF weather

Enter ICAO airport designator
Station Type Date Time Source
RCSS METAR 2018/12/10 01:30 UTC NOAA

RCSS 100130Z 28003KT 250V320 9999 -RA SCT008 BKN018 BKN030 23/21 Q1020 NOSIG RMK A3014


Station Type Date Time Source
RCSS Decoded METAR 2018/12/10 01:30 UTC NOAA

Sungshan / Taipei, Taiwan (RCSS) 25-04N 121-33E
Dec 09, 2018 - 08:30 PM EST / 2018.12.10 0130 UTC
Wind: from the W (280 degrees) at 3 MPH (3 KT) (direction variable):0
Visibility: greater than 7 mile(s):0
Sky conditions: mostly cloudy
Weather: light rain
Temperature: 73 F (23 C)
Dew Point: 69 F (21 C)
Relative Humidity: 88%
Pressure (altimeter): 30.12 in. Hg (1020 hPa)
ob: RCSS 100130Z 28003KT 250V320 9999 -RA SCT008 BKN018 BKN030 23/21 Q1020 NOSIG RMK A3014
cycle: 1

Station Type Date Time Source
RCSS TAF 2018/12/09 18:03 UTC NOAA

TAF RCSS 091700Z 0918/1018 10010KT 9999 FEW008 BKN022 BKN050
TEMPO 0918/0924 FEW006 BKN016 BKN040
TEMPO 1002/1008 11012G22KT
TEMPO 1008/1012 FEW006 BKN016 BKN040
TEMPO 1012/1018 FEW015 BKN032 BKN060


Example: see airport list